Time;durP1;ratioP1;P1;durP2;ratioP2;P2;SDS_P1;SDS_P2;PMS_P1;PMS_P2;Temp;Humidity;BMP_temperature;BMP_pressure;BME280_temperature;BME280_humidity;BME280_pressure;Samples;Min_cycle;Max_cycle;Signal;HPM_P1;HPM_P2
2023/11/17 00:00:32;;;;;;;4.25;1.75;;;9.60;99.90;;;;;;4925412;28;22601;-77
2023/11/17 00:03:00;;;;;;;4.70;1.58;;;9.50;99.90;;;;;;4937503;28;20138;-77
2023/11/17 00:05:30;;;;;;;4.78;1.70;;;9.50;99.90;;;;;;4923394;28;20054;-76
2023/11/17 00:07:59;;;;;;;4.45;1.70;;;9.60;99.90;;;;;;4928545;28;20062;-77
2023/11/17 00:10:27;;;;;;;6.72;1.48;;;9.60;99.90;;;;;;4927663;28;20651;-77
2023/11/17 00:12:55;;;;;;;4.85;2.17;;;9.60;99.90;;;;;;4931300;28;20145;-77
2023/11/17 00:15:24;;;;;;;3.10;1.25;;;9.60;99.90;;;;;;4928254;28;20047;-77
2023/11/17 00:17:54;;;;;;;4.65;1.55;;;9.60;99.90;;;;;;4947051;28;20054;-78
2023/11/17 00:20:23;;;;;;;4.93;1.55;;;9.60;99.90;;;;;;4932709;28;20054;-76
2023/11/17 00:22:52;;;;;;;2.67;1.17;;;9.60;99.90;;;;;;4960152;28;20067;-76
2023/11/17 00:25:21;;;;;;;4.72;1.48;;;10.70;99.90;;;;;;4942025;28;20050;-76
2023/11/17 00:27:50;;;;;;;3.67;1.45;;;9.70;99.90;;;;;;4934511;28;20543;-77
2023/11/17 00:30:20;;;;;;;4.63;1.83;;;9.70;99.90;;;;;;4951479;28;20038;-82
2023/11/17 00:32:49;;;;;;;4.32;1.77;;;9.90;99.90;;;;;;4945543;28;20047;-78
2023/11/17 00:35:20;;;;;;;4.70;2.13;;;9.10;99.90;;;;;;4946529;28;20057;-76
2023/11/17 00:37:51;;;;;;;5.10;2.20;;;9.70;99.90;;;;;;4958556;28;20054;-78
2023/11/17 00:40:20;;;;;;;4.18;1.95;;;10.50;99.90;;;;;;4941584;28;20057;-79
2023/11/17 00:42:49;;;;;;;5.18;1.23;;;10.10;99.90;;;;;;4959271;28;20070;-77
2023/11/17 00:45:18;;;;;;;6.13;2.40;;;9.40;99.90;;;;;;4937026;28;20815;-79
2023/11/17 00:47:47;;;;;;;3.72;1.75;;;10.50;99.90;;;;;;4938862;28;20094;-76
2023/11/17 00:50:16;;;;;;;3.30;1.70;;;9.20;99.90;;;;;;4921398;28;20048;-78
2023/11/17 00:52:46;;;;;;;5.95;2.22;;;9.70;99.90;;;;;;4942970;28;20047;-77
2023/11/17 00:55:15;;;;;;;5.30;1.90;;;9.50;99.90;;;;;;4931567;28;20807;-77
2023/11/17 00:57:45;;;;;;;2.95;1.33;;;10.50;99.90;;;;;;4940205;28;20042;-78
2023/11/17 01:00:15;;;;;;;3.28;1.27;;;9.90;99.90;;;;;;4939205;28;20047;-76
2023/11/17 01:02:44;;;;;;;6.72;2.10;;;9.70;99.90;;;;;;4924313;28;20050;-78
2023/11/17 01:05:13;;;;;;;5.90;1.40;;;10.50;99.90;;;;;;4935880;29;20055;-79
2023/11/17 01:07:42;;;;;;;3.78;1.50;;;9.70;99.90;;;;;;4936908;28;20039;-76
2023/11/17 01:10:16;;;;;;;5.07;2.17;;;9.50;99.90;;;;;;4923476;29;20119;-78
2023/11/17 01:12:45;;;;;;;5.50;1.65;;;10.90;99.90;;;;;;4937961;29;20169;-76
2023/11/17 01:15:14;;;;;;;6.18;2.03;;;9.80;99.90;;;;;;4939533;28;20280;-76
2023/11/17 01:17:43;;;;;;;4.72;2.10;;;10.10;99.90;;;;;;4941828;28;20047;-79
2023/11/17 01:20:12;;;;;;;3.70;1.45;;;9.70;99.90;;;;;;4925225;28;20051;-76
2023/11/17 01:22:41;;;;;;;3.67;1.60;;;10.30;99.90;;;;;;4938743;28;20051;-76
2023/11/17 01:25:10;;;;;;;4.38;1.85;;;11.20;99.90;;;;;;4923693;28;20106;-76
2023/11/17 01:27:43;;;;;;;3.78;1.90;;;10.10;99.90;;;;;;4935920;28;20079;-76
2023/11/17 01:30:14;;;;;;;4.88;2.00;;;9.90;99.90;;;;;;4899570;29;20068;-76
2023/11/17 01:32:43;;;;;;;4.20;1.80;;;9.60;99.90;;;;;;4886248;29;20130;-76
2023/11/17 01:35:11;;;;;;;4.38;2.10;;;9.50;99.90;;;;;;4906289;29;20051;-77
2023/11/17 01:37:40;;;;;;;7.18;1.80;;;9.50;99.90;;;;;;4904721;29;20078;-78
2023/11/17 01:40:10;;;;;;;4.60;2.25;;;9.50;99.90;;;;;;4889323;29;20110;-78
2023/11/17 01:42:40;;;;;;;3.67;2.03;;;9.50;99.90;;;;;;4904087;29;22309;-79
2023/11/17 01:45:09;;;;;;;3.97;2.00;;;9.50;99.90;;;;;;4892315;29;20692;-78
2023/11/17 01:47:39;;;;;;;6.25;2.58;;;9.40;99.90;;;;;;4916194;29;20043;-78
2023/11/17 01:50:11;;;;;;;6.63;2.28;;;9.40;99.90;;;;;;4919798;29;20048;-78
2023/11/17 01:52:42;;;;;;;;;;;9.30;99.90;;;;;;4885973;29;20051;-78
2023/11/17 01:55:16;;;;;;;4.00;1.80;;;9.30;99.90;;;;;;4928946;29;20676;-80
2023/11/17 01:58:05;;;;;;;5.00;1.65;;;9.10;99.90;;;;;;4911105;29;20060;-80
2023/11/17 02:00:36;;;;;;;4.35;1.80;;;9.90;99.90;;;;;;4895661;29;20119;-78
2023/11/17 02:03:06;;;;;;;4.45;2.15;;;9.40;99.90;;;;;;4893750;29;20055;-79
2023/11/17 02:05:36;;;;;;;6.00;2.28;;;9.20;99.90;;;;;;4898366;29;20063;-79
2023/11/17 02:08:19;;;;;;;8.77;3.47;;;9.20;99.90;;;;;;4899709;29;20070;-78
2023/11/17 02:10:56;;;;;;;12.48;4.85;;;9.20;99.90;;;;;;4891540;29;20132;-78
2023/11/17 02:13:32;;;;;;;12.18;4.85;;;9.20;99.90;;;;;;4878860;29;20059;-78
2023/11/17 02:16:02;;;;;;;8.73;3.75;;;9.30;99.90;;;;;;4880553;29;20066;-78
2023/11/17 02:18:35;;;;;;;12.80;4.60;;;9.20;99.90;;;;;;4902577;29;20043;-78
2023/11/17 02:21:07;;;;;;;14.65;5.57;;;9.20;99.90;;;;;;4879942;29;20090;-78
2023/11/17 02:23:39;;;;;;;10.40;3.92;;;9.20;99.90;;;;;;4893717;29;20064;-78
2023/11/17 02:26:20;;;;;;;5.93;2.47;;;9.20;99.90;;;;;;4893370;29;20066;-78
2023/11/17 02:28:59;;;;;;;4.25;2.15;;;9.20;99.90;;;;;;4878267;29;20070;-78
2023/11/17 02:31:32;;;;;;;3.65;1.83;;;9.40;99.90;;;;;;4884510;29;20416;-79
2023/11/17 02:34:03;;;;;;;3.95;1.77;;;9.20;99.90;;;;;;4896798;29;20056;-78
2023/11/17 02:36:33;;;;;;;5.15;1.48;;;9.20;99.90;;;;;;4895456;29;20052;-78
2023/11/17 02:39:14;;;;;;;5.03;1.88;;;9.20;99.90;;;;;;4896697;29;20083;-78
2023/11/17 02:41:48;;;;;;;5.32;1.63;;;9.20;99.90;;;;;;4899699;29;20067;-78
2023/11/17 02:44:16;;;;;;;2.47;1.38;;;9.20;99.90;;;;;;4906613;29;20135;-77
2023/11/17 02:46:58;;;;;;;3.85;1.85;;;9.20;99.90;;;;;;4925934;28;20051;-78
2023/11/17 02:49:40;;;;;;;4.32;1.80;;;9.20;99.90;;;;;;4925485;28;20054;-78
2023/11/17 02:52:15;;;;;;;4.50;1.63;;;9.20;99.90;;;;;;4909973;29;20054;-78
2023/11/17 02:54:43;;;;;;;2.97;1.02;;;9.20;99.90;;;;;;4927713;28;22574;-78
2023/11/17 02:57:15;;;;;;;3.10;1.45;;;9.20;99.90;;;;;;4927919;29;20055;-78
2023/11/17 02:59:44;;;;;;;5.88;1.55;;;9.20;99.90;;;;;;4913127;29;20055;-78
2023/11/17 03:02:19;;;;;;;6.85;2.05;;;9.20;99.90;;;;;;4928550;28;21953;-78
2023/11/17 03:04:52;;;;;;;4.20;1.67;;;9.20;99.90;;;;;;4900223;28;20055;-78
2023/11/17 03:07:21;;;;;;;3.95;1.80;;;9.20;99.90;;;;;;4912309;29;22837;-78
2023/11/17 03:09:51;;;;;;;4.43;1.50;;;9.20;99.90;;;;;;4911069;28;20193;-78
2023/11/17 03:12:21;;;;;;;5.07;2.25;;;9.20;99.90;;;;;;4912087;29;22421;-78
2023/11/17 03:14:53;;;;;;;3.38;1.58;;;9.20;99.90;;;;;;4913805;29;20047;-78
2023/11/17 03:17:32;;;;;;;4.57;1.25;;;8.80;99.90;;;;;;4927812;28;20070;-78
2023/11/17 03:20:14;;;;;;;4.30;1.83;;;9.20;99.90;;;;;;4929935;29;20066;-77
2023/11/17 03:23:00;;;;;;;4.15;1.50;;;9.00;99.90;;;;;;4934029;28;20056;-78
2023/11/17 03:25:41;;;;;;;5.22;1.85;;;9.40;99.90;;;;;;4936745;28;20066;-77
2023/11/17 03:28:13;;;;;;;4.60;1.58;;;9.90;99.90;;;;;;4930490;28;20116;-78
2023/11/17 03:30:42;;;;;;;4.95;1.60;;;9.20;99.90;;;;;;4908900;29;20062;-78
2023/11/17 03:33:12;;;;;;;3.55;1.65;;;9.40;99.90;;;;;;4913089;29;20094;-78
2023/11/17 03:35:41;;;;;;;3.70;1.52;;;9.10;99.90;;;;;;4911819;28;20138;-77
2023/11/17 03:38:13;;;;;;;3.05;1.48;;;9.10;99.90;;;;;;4928991;28;20078;-78
2023/11/17 03:40:45;;;;;;;7.72;2.75;;;9.10;99.90;;;;;;4914692;28;20055;-78
2023/11/17 03:43:14;;;;;;;8.48;3.63;;;9.10;99.90;;;;;;4932855;28;20070;-78
2023/11/17 03:45:48;;;;;;;6.13;2.70;;;9.10;99.90;;;;;;4931748;28;20051;-78
2023/11/17 03:48:19;;;;;;;6.03;2.50;;;9.10;99.90;;;;;;4936769;28;20043;-78
2023/11/17 03:50:48;;;;;;;4.50;2.25;;;9.10;99.90;;;;;;4943210;28;20132;-78
2023/11/17 03:53:17;;;;;;;6.53;2.60;;;9.10;99.90;;;;;;4931836;28;22181;-77
2023/11/17 03:55:46;;;;;;;8.98;2.38;;;9.10;99.90;;;;;;4930887;28;20799;-78
2023/11/17 03:58:15;;;;;;;4.40;2.20;;;9.10;99.90;;;;;;4932851;28;20063;-78
2023/11/17 04:00:48;;;;;;;5.97;2.45;;;9.10;99.90;;;;;;4920261;28;20062;-78
2023/11/17 04:03:19;;;;;;;4.90;2.45;;;9.20;99.90;;;;;;4915455;29;20066;-78
2023/11/17 04:05:48;;;;;;;6.43;2.70;;;9.10;99.90;;;;;;4915250;29;20058;-78
2023/11/17 04:08:17;;;;;;;4.93;2.47;;;9.10;99.90;;;;;;4931177;28;20046;-78
2023/11/17 04:10:46;;;;;;;7.70;3.55;;;9.00;99.90;;;;;;4931286;28;20153;-78
2023/11/17 04:13:15;;;;;;;8.93;4.68;;;9.20;99.90;;;;;;4924786;28;20063;-78
2023/11/17 04:15:45;;;;;;;7.85;4.47;;;9.00;99.90;;;;;;4931948;28;20167;-78
2023/11/17 04:18:14;;;;;;;6.20;3.70;;;9.40;99.90;;;;;;4935054;28;20055;-78
2023/11/17 04:20:44;;;;;;;6.82;3.85;;;9.00;99.90;;;;;;4915056;29;20065;-78
2023/11/17 04:23:12;;;;;;;6.68;3.40;;;9.00;99.90;;;;;;4944561;28;20071;-78
2023/11/17 04:25:41;;;;;;;4.85;2.20;;;8.90;99.90;;;;;;4932952;28;20043;-78
2023/11/17 04:28:09;;;;;;;5.57;2.65;;;8.90;99.90;;;;;;4914638;29;20055;-78
2023/11/17 04:30:38;;;;;;;5.78;2.70;;;8.90;99.90;;;;;;4931287;28;21138;-78
2023/11/17 04:33:06;;;;;;;5.93;2.20;;;8.90;99.90;;;;;;4946813;28;20051;-78
2023/11/17 04:35:35;;;;;;;4.68;2.13;;;8.80;99.90;;;;;;4913920;28;20047;-78
2023/11/17 04:38:05;;;;;;;5.93;2.25;;;8.80;99.90;;;;;;4928038;29;20062;-77
2023/11/17 04:40:34;;;;;;;4.70;2.25;;;8.80;99.90;;;;;;4914203;28;20055;-78
2023/11/17 04:43:04;;;;;;;5.22;2.53;;;8.80;99.90;;;;;;4942427;28;22820;-78
2023/11/17 04:45:36;;;;;;;4.53;2.03;;;8.80;99.90;;;;;;4934612;28;22291;-80
2023/11/17 04:48:05;;;;;;;4.97;2.00;;;8.70;99.90;;;;;;4925358;29;20066;-78
2023/11/17 04:50:34;;;;;;;5.25;2.47;;;8.70;99.90;;;;;;4942877;28;20058;-78
2023/11/17 04:53:02;;;;;;;4.13;1.80;;;8.70;99.90;;;;;;4943187;28;20175;-78
2023/11/17 04:55:32;;;;;;;4.88;2.17;;;8.70;99.90;;;;;;4921794;28;20046;-78
2023/11/17 04:58:01;;;;;;;4.55;2.15;;;8.60;99.90;;;;;;4940823;28;22342;-78
2023/11/17 05:00:31;;;;;;;6.22;2.13;;;8.60;99.90;;;;;;4924023;28;20051;-78
2023/11/17 05:03:00;;;;;;;7.30;2.30;;;8.60;99.90;;;;;;4942648;28;20055;-78
2023/11/17 05:05:29;;;;;;;4.97;2.13;;;8.60;99.90;;;;;;4922215;29;20067;-78
2023/11/17 05:07:59;;;;;;;6.35;2.25;;;8.60;99.90;;;;;;4947596;28;20805;-77
2023/11/17 05:10:28;;;;;;;6.00;2.22;;;8.70;99.90;;;;;;4933467;28;20051;-78
2023/11/17 05:12:57;;;;;;;6.10;2.47;;;8.60;99.90;;;;;;4941477;28;20602;-78
2023/11/17 05:15:26;;;;;;;6.65;2.65;;;8.50;99.90;;;;;;4934382;28;20047;-78
2023/11/17 05:17:55;;;;;;;5.03;2.13;;;8.70;99.90;;;;;;4926322;28;20099;-78
2023/11/17 05:20:24;;;;;;;5.97;2.30;;;8.80;99.90;;;;;;4931694;28;20342;-77
2023/11/17 05:22:52;;;;;;;8.82;3.28;;;8.60;99.90;;;;;;4932348;28;20149;-77
2023/11/17 05:25:21;;;;;;;7.82;2.63;;;8.60;99.90;;;;;;4939675;28;20067;-77
2023/11/17 05:27:49;;;;;;;9.10;3.25;;;8.60;99.90;;;;;;4920038;29;20066;-77
2023/11/17 05:30:19;;;;;;;4.57;2.63;;;8.60;99.90;;;;;;4930242;28;20082;-77
2023/11/17 05:32:48;;;;;;;8.02;2.55;;;9.10;99.90;;;;;;4941207;28;20372;-78
2023/11/17 05:35:18;;;;;;;6.55;2.92;;;8.50;99.90;;;;;;4916086;29;22687;-78
2023/11/17 05:37:46;;;;;;;8.20;4.28;;;8.60;99.90;;;;;;4935044;28;20459;-77
2023/11/17 05:40:15;;;;;;;5.22;2.83;;;8.60;99.90;;;;;;4922124;28;20074;-77
2023/11/17 05:42:43;;;;;;;5.55;2.70;;;8.50;99.90;;;;;;4924553;29;20051;-78
2023/11/17 05:45:14;;;;;;;8.52;3.53;;;8.60;99.90;;;;;;4919043;28;20082;-77
2023/11/17 05:47:44;;;;;;;7.07;3.00;;;8.60;99.90;;;;;;4894344;29;20083;-78
2023/11/17 05:50:14;;;;;;;7.50;3.38;;;8.60;99.90;;;;;;4894631;29;20059;-78
2023/11/17 05:52:43;;;;;;;7.25;3.40;;;8.60;99.90;;;;;;4911733;29;20058;-77
2023/11/17 05:55:16;;;;;;;8.90;3.03;;;8.60;99.90;;;;;;4893390;29;20052;-78
2023/11/17 05:57:45;;;;;;;6.47;2.97;;;8.50;99.90;;;;;;4893855;29;20075;-78
2023/11/17 06:00:18;;;;;;;5.65;2.88;;;8.60;99.90;;;;;;4912752;29;20488;-80
2023/11/17 06:02:50;;;;;;;6.80;3.05;;;8.60;99.90;;;;;;4928901;29;20046;-80
2023/11/17 06:05:20;;;;;;;6.53;2.95;;;9.60;99.90;;;;;;4931584;29;20040;-80
2023/11/17 06:07:49;;;;;;;7.57;3.17;;;9.50;99.90;;;;;;4930598;29;20080;-79
2023/11/17 06:10:23;;;;;;;8.55;3.88;;;9.60;99.90;;;;;;4929009;29;20060;-75
2023/11/17 06:12:52;;;;;;;6.25;3.13;;;8.80;99.90;;;;;;4937810;29;20047;-75
2023/11/17 06:15:26;;;;;;;8.07;3.30;;;9.00;99.90;;;;;;4922783;29;20043;-76
2023/11/17 06:18:07;;;;;;;7.17;3.50;;;9.00;99.90;;;;;;4923484;29;20118;-76
2023/11/17 06:20:35;;;;;;;7.38;3.30;;;8.80;99.90;;;;;;4920211;29;20051;-76
2023/11/17 06:23:04;;;;;;;8.20;3.78;;;8.80;99.90;;;;;;4920430;29;20078;-76
2023/11/17 06:25:33;;;;;;;6.60;3.05;;;8.70;99.90;;;;;;4923408;29;20087;-76
2023/11/17 06:28:03;;;;;;;6.18;3.13;;;8.70;99.90;;;;;;4924180;29;20542;-76
2023/11/17 06:30:31;;;;;;;6.40;2.83;;;8.70;99.90;;;;;;4929871;29;20427;-76
2023/11/17 06:33:00;;;;;;;6.50;3.05;;;9.20;99.90;;;;;;4940507;29;20082;-76
2023/11/17 06:35:30;;;;;;;7.78;3.15;;;8.90;99.90;;;;;;4922916;29;20155;-76
2023/11/17 06:38:03;;;;;;;6.95;3.28;;;8.90;99.90;;;;;;4927210;29;20071;-76
2023/11/17 06:40:32;;;;;;;9.93;3.42;;;9.80;99.90;;;;;;4922663;29;20048;-76
2023/11/17 06:43:01;;;;;;;7.00;3.35;;;9.10;99.90;;;;;;4922800;29;20078;-76
2023/11/17 06:45:29;;;;;;;6.50;3.25;;;8.90;99.90;;;;;;4924583;29;20062;-76
2023/11/17 06:47:57;;;;;;;9.02;4.32;;;8.80;99.90;;;;;;4921650;29;20083;-76
2023/11/17 06:50:27;;;;;;;8.77;4.57;;;9.00;99.90;;;;;;4923754;29;20495;-76
2023/11/17 06:52:57;;;;;;;9.77;5.10;;;8.80;99.90;;;;;;4938000;29;20126;-76
2023/11/17 06:55:27;;;;;;;14.68;5.32;;;9.00;99.90;;;;;;4923047;29;20052;-76
2023/11/17 06:57:56;;;;;;;12.57;5.20;;;9.00;99.90;;;;;;4940530;29;20130;-76
2023/11/17 07:00:24;;;;;;;9.57;5.22;;;8.90;99.90;;;;;;4922742;29;20435;-76
2023/11/17 07:02:53;;;;;;;9.80;4.57;;;9.40;99.90;;;;;;4922105;29;20286;-76
2023/11/17 07:05:22;;;;;;;12.70;4.72;;;8.90;99.90;;;;;;4935959;29;20040;-76
2023/11/17 07:07:52;;;;;;;13.10;4.88;;;9.00;99.90;;;;;;4930695;29;20756;-76
2023/11/17 07:10:24;;;;;;;9.57;4.90;;;9.30;99.90;;;;;;4925633;29;20559;-76
2023/11/17 07:12:54;;;;;;;11.27;5.75;;;8.90;99.90;;;;;;4922293;29;20078;-76
2023/11/17 07:15:24;;;;;;;17.38;6.75;;;9.20;99.90;;;;;;4926224;29;20078;-76
2023/11/17 07:17:53;;;;;;;15.82;6.13;;;8.10;99.90;;;;;;4927968;29;20062;-76
2023/11/17 07:20:23;;;;;;;8.75;4.38;;;9.00;99.90;;;;;;4941386;29;20048;-77
2023/11/17 07:22:53;;;;;;;10.55;4.78;;;9.80;99.90;;;;;;4945858;29;20051;-77
2023/11/17 07:25:24;;;;;;;6.97;3.50;;;8.40;99.90;;;;;;4933708;29;20083;-78
2023/11/17 07:27:55;;;;;;;8.93;4.15;;;7.70;99.90;;;;;;4907155;29;20048;-78
2023/11/17 07:30:24;;;;;;;11.15;4.28;;;9.60;99.90;;;;;;4931316;29;20048;-77
2023/11/17 07:32:54;;;;;;;8.98;4.13;;;9.20;99.90;;;;;;4939661;29;20099;-77
2023/11/17 07:35:25;;;;;;;11.77;5.13;;;9.00;99.90;;;;;;4950867;29;20050;-77
2023/11/17 07:37:57;;;;;;;16.67;5.87;;;9.00;99.90;;;;;;4917992;29;20051;-77
2023/11/17 07:40:29;;;;;;;13.10;6.15;;;9.10;99.90;;;;;;4941484;29;20043;-77
2023/11/17 07:43:00;;;;;;;14.80;7.35;;;9.10;99.90;;;;;;4938497;29;20123;-77
2023/11/17 07:45:30;;;;;;;15.02;7.72;;;9.30;99.90;;;;;;4930917;29;20052;-77
2023/11/17 07:47:59;;;;;;;14.48;6.13;;;9.00;99.90;;;;;;4928299;29;20048;-77
2023/11/17 07:50:30;;;;;;;11.65;5.70;;;9.00;99.90;;;;;;4926204;29;20052;-77
2023/11/17 07:52:59;;;;;;;13.50;4.65;;;9.50;99.90;;;;;;4941596;29;20397;-77
2023/11/17 07:55:31;;;;;;;9.13;4.40;;;9.20;99.90;;;;;;4924531;29;20075;-77
2023/11/17 07:58:01;;;;;;;10.93;4.70;;;10.20;99.90;;;;;;4926738;29;20036;-77
2023/11/17 08:00:31;;;;;;;10.82;4.45;;;9.10;99.90;;;;;;4930474;29;20047;-77
2023/11/17 08:03:00;;;;;;;9.10;4.25;;;9.30;99.90;;;;;;4955642;29;20414;-77
2023/11/17 08:05:29;;;;;;;8.52;4.65;;;9.30;99.90;;;;;;4915638;29;20084;-77
2023/11/17 08:08:00;;;;;;;9.73;4.18;;;9.30;99.90;;;;;;4931397;29;20044;-77
2023/11/17 08:10:30;;;;;;;11.18;4.43;;;9.30;99.90;;;;;;4929763;29;20051;-77
2023/11/17 08:13:00;;;;;;;8.35;4.13;;;9.30;99.90;;;;;;4947263;29;20480;-77
2023/11/17 08:15:29;;;;;;;7.10;3.95;;;9.40;99.90;;;;;;4946216;29;20463;-77
2023/11/17 08:17:58;;;;;;;11.60;4.90;;;10.50;99.90;;;;;;4929919;29;20043;-77
2023/11/17 08:20:31;;;;;;;8.77;4.22;;;9.60;99.90;;;;;;4929259;29;20052;-77
2023/11/17 08:23:00;;;;;;;7.38;4.22;;;9.40;99.90;;;;;;4932302;29;20076;-78
2023/11/17 08:25:32;;;;;;;9.52;4.55;;;9.50;99.90;;;;;;4933188;29;20053;-77
2023/11/17 08:28:02;;;;;;;9.32;4.47;;;9.40;99.90;;;;;;4918858;29;20050;-77
2023/11/17 08:30:31;;;;;;;8.98;4.38;;;9.90;99.90;;;;;;4952835;29;20046;-79
2023/11/17 08:33:17;;;;;;;9.88;4.28;;;9.50;99.90;;;;;;4937670;29;20412;-77
2023/11/17 08:35:48;;;;;;;9.80;4.28;;;9.70;99.90;;;;;;4950780;29;20080;-77
2023/11/17 08:38:17;;;;;;;9.77;4.50;;;9.70;99.90;;;;;;4916808;29;20054;-77
2023/11/17 08:40:52;;;;;;;10.40;5.20;;;9.60;99.90;;;;;;4935140;29;20059;-77
2023/11/17 08:43:21;;;;;;;8.88;4.30;;;9.90;99.90;;;;;;4932156;29;20051;-77
2023/11/17 08:45:54;;;;;;;9.02;5.38;;;9.90;99.90;;;;;;4929598;29;20063;-77
2023/11/17 08:48:23;;;;;;;9.43;4.93;;;9.90;99.90;;;;;;4945089;29;20471;-77
2023/11/17 08:50:52;;;;;;;12.65;6.15;;;9.80;99.90;;;;;;4947585;29;20054;-76
2023/11/17 08:53:21;;;;;;;9.05;5.30;;;10.00;99.90;;;;;;4937792;29;20091;-77
2023/11/17 08:55:51;;;;;;;10.88;4.88;;;10.10;99.90;;;;;;4929172;29;20384;-76
2023/11/17 08:58:21;;;;;;;10.10;5.03;;;10.30;99.90;;;;;;4929553;29;20483;-77
2023/11/17 09:00:49;;;;;;;9.77;5.13;;;9.90;99.90;;;;;;4928134;29;20048;-77
2023/11/17 09:03:22;;;;;;;;;;;9.90;99.90;;;;;;4945418;29;20059;-77
2023/11/17 09:05:50;;;;;;;9.45;4.28;;;9.80;99.90;;;;;;4948149;29;19922;-77
2023/11/17 09:08:19;;;;;;;14.40;5.63;;;9.80;99.90;;;;;;4933427;29;20048;-77
2023/11/17 09:10:48;;;;;;;11.48;6.45;;;10.00;99.90;;;;;;4924317;29;22180;-77
2023/11/17 09:13:18;;;;;;;11.63;5.55;;;9.80;99.90;;;;;;4940144;29;20047;-77
2023/11/17 09:15:46;;;;;;;10.27;5.70;;;9.50;99.90;;;;;;4947455;29;20039;-76
2023/11/17 09:18:15;;;;;;;13.50;6.57;;;10.30;99.90;;;;;;4927346;29;20561;-76
2023/11/17 09:20:43;;;;;;;11.25;6.45;;;9.80;99.90;;;;;;4925734;29;20048;-76
2023/11/17 09:23:12;;;;;;;12.45;6.05;;;9.80;99.90;;;;;;4941812;29;20052;-76
2023/11/17 09:25:40;;;;;;;12.13;6.53;;;10.20;99.90;;;;;;4943920;29;20078;-76
2023/11/17 09:28:11;;;;;;;12.02;6.65;;;9.80;99.90;;;;;;4928622;29;20143;-76
2023/11/17 09:30:42;;;;;;;14.55;6.38;;;9.80;99.90;;;;;;4920434;29;20143;-77
2023/11/17 09:33:13;;;;;;;;;;;9.80;99.90;;;;;;4924378;29;20143;-77
2023/11/17 09:35:42;;;;;;;11.43;5.50;;;9.70;99.90;;;;;;4915728;29;19929;-76
2023/11/17 09:38:11;;;;;;;11.45;5.85;;;9.70;99.90;;;;;;4932580;29;20052;-76
2023/11/17 09:40:53;;;;;;;9.63;5.38;;;10.20;99.90;;;;;;4934488;29;20055;-79
2023/11/17 09:43:23;;;;;;;8.23;4.72;;;10.00;99.90;;;;;;4907913;29;20051;-80
2023/11/17 09:45:54;;;;;;;8.55;5.13;;;10.20;99.90;;;;;;4920429;28;22141;-79
2023/11/17 09:48:26;;;;;;;8.52;5.10;;;8.00;99.90;;;;;;4946124;28;20126;-80
2023/11/17 09:50:56;;;;;;;10.80;5.30;;;9.70;99.90;;;;;;4925674;28;20532;-80
2023/11/17 09:53:29;;;;;;;8.20;5.55;;;8.20;99.90;;;;;;4930050;28;20300;-77
2023/11/17 09:55:58;;;;;;;;;;;9.70;99.90;;;;;;4936649;28;20149;-79
2023/11/17 09:58:29;;;;;;;9.00;5.88;;;9.90;99.90;;;;;;4929442;28;19930;-79
2023/11/17 10:01:00;;;;;;;9.00;6.30;;;10.50;99.90;;;;;;4906927;28;20592;-78
2023/11/17 10:03:30;;;;;;;10.10;6.83;;;9.60;99.90;;;;;;4922620;28;20746;-78
2023/11/17 10:06:04;;;;;;;9.57;5.65;;;9.70;99.90;;;;;;4922827;28;20063;-79
2023/11/17 10:08:34;;;;;;;12.23;6.53;;;9.70;99.90;;;;;;4922121;28;20086;-79
2023/11/17 10:11:03;;;;;;;12.05;7.07;;;9.50;99.90;;;;;;4927001;28;20250;-79
2023/11/17 10:13:34;;;;;;;9.48;5.25;;;9.70;99.90;;;;;;4909858;28;20130;-79
2023/11/17 10:16:07;;;;;;;10.32;5.82;;;9.70;99.90;;;;;;4906548;29;22367;-80
2023/11/17 10:18:40;;;;;;;11.10;5.60;;;10.30;99.90;;;;;;4924063;28;20106;-79
2023/11/17 10:21:10;;;;;;;10.43;5.60;;;10.60;99.90;;;;;;4923277;28;20404;-80
2023/11/17 10:23:41;;;;;;;10.13;5.20;;;9.70;99.90;;;;;;4924197;28;20059;-79
2023/11/17 10:26:09;;;;;;;8.98;4.68;;;9.80;99.90;;;;;;4926013;28;20055;-79
2023/11/17 10:28:38;;;;;;;6.93;4.55;;;9.90;99.90;;;;;;4908701;29;20051;-79
2023/11/17 10:31:11;;;;;;;8.38;4.75;;;10.10;99.90;;;;;;4908914;28;20063;-79
2023/11/17 10:33:44;;;;;;;7.03;5.38;;;11.00;99.90;;;;;;4916914;28;20062;-80
2023/11/17 10:36:16;;;;;;;7.95;5.90;;;9.80;99.90;;;;;;4858790;28;22379;-79
2023/11/17 10:38:51;;;;;;;4.95;3.45;;;10.20;99.90;;;;;;4913226;29;20058;-80
2023/11/17 10:41:30;;;;;;;5.45;3.38;;;11.30;99.90;;;;;;4933965;28;20055;-79
2023/11/17 10:44:01;;;;;;;5.43;3.60;;;10.30;99.90;;;;;;4910142;28;20882;-79
2023/11/17 10:46:39;;;;;;;5.22;3.63;;;10.20;99.90;;;;;;4927373;28;20065;-80
2023/11/17 10:49:16;;;;;;;4.38;3.33;;;10.20;99.90;;;;;;4921447;28;20055;-78
2023/11/17 10:51:52;;;;;;;4.53;3.10;;;10.70;99.90;;;;;;4936563;28;20632;-78
2023/11/17 10:54:23;;;;;;;4.32;3.53;;;10.10;99.90;;;;;;4939304;28;20083;-75
2023/11/17 10:56:52;;;;;;;5.30;3.22;;;10.10;99.90;;;;;;4914488;29;20055;-76
2023/11/17 10:59:39;;;;;;;6.65;3.22;;;10.10;99.90;;;;;;4934580;28;20043;-77
2023/11/17 11:02:31;;;;;;;3.58;2.67;;;10.70;99.90;;;;;;4925735;28;20055;-77
2023/11/17 11:05:04;;;;;;;5.07;3.30;;;10.10;99.90;;;;;;4928865;29;20067;-78
2023/11/17 11:07:46;;;;;;;3.45;2.22;;;10.10;99.90;;;;;;4935041;28;22233;-78
2023/11/17 11:10:28;;;;;;;5.07;2.72;;;10.10;99.90;;;;;;4926469;28;20055;-77
2023/11/17 11:13:02;;;;;;;3.05;1.98;;;10.50;99.90;;;;;;4943575;28;20051;-77
2023/11/17 11:15:33;;;;;;;3.10;2.55;;;10.30;99.90;;;;;;4919020;29;20059;-77
2023/11/17 11:18:06;;;;;;;4.50;2.50;;;10.30;99.90;;;;;;4943788;28;20162;-77
2023/11/17 11:20:39;;;;;;;4.70;2.22;;;10.30;99.90;;;;;;4931965;28;20051;-77
2023/11/17 11:23:08;;;;;;;3.38;2.20;;;10.60;99.90;;;;;;4934874;28;20728;-77
2023/11/17 11:25:51;;;;;;;3.65;2.28;;;10.50;99.90;;;;;;4909929;29;22238;-77
2023/11/17 11:28:21;;;;;;;9.20;5.18;;;10.40;99.90;;;;;;4919241;28;20059;-77
2023/11/17 11:31:06;;;;;;;6.18;4.15;;;10.40;99.90;;;;;;4936506;29;20051;-76
2023/11/17 11:33:36;;;;;;;4.47;3.15;;;10.20;99.90;;;;;;4918871;28;20051;-76
2023/11/17 11:36:10;;;;;;;5.55;4.30;;;10.20;99.90;;;;;;4926647;28;20087;-77
2023/11/17 11:38:49;;;;;;;5.03;4.18;;;10.20;99.90;;;;;;4946958;28;20058;-77
2023/11/17 11:44:11;;;;;;;3.88;2.33;;;10.60;99.90;;;;;;4935722;29;20126;-78
2023/11/17 11:46:51;;;;;;;2.15;1.60;;;10.10;99.90;;;;;;4943599;28;20190;-78
2023/11/17 11:49:34;;;;;;;2.17;1.73;;;10.00;99.90;;;;;;4939349;28;20063;-78
2023/11/17 11:52:13;;;;;;;5.43;1.63;;;10.10;99.90;;;;;;4928704;28;20059;-78
2023/11/17 11:54:42;;;;;;;4.60;2.10;;;11.10;99.90;;;;;;4939621;28;20059;-77
2023/11/17 11:57:34;;;;;;;1.77;1.13;;;9.90;99.90;;;;;;4944482;29;20116;-77
2023/11/17 12:00:23;;;;;;;2.90;1.23;;;10.00;99.90;;;;;;4926529;28;20146;-77
2023/11/17 12:02:58;;;;;;;3.55;2.30;;;10.30;99.90;;;;;;4928144;28;20047;-79
2023/11/17 12:05:33;;;;;;;2.45;1.60;;;9.90;99.90;;;;;;4910829;29;20090;-79
2023/11/17 12:08:03;;;;;;;2.25;0.90;;;9.90;99.90;;;;;;4914005;29;20051;-80
2023/11/17 12:10:37;;;;;;;3.08;1.63;;;9.90;99.90;;;;;;4925456;28;20047;-78
2023/11/17 12:13:07;;;;;;;3.08;1.90;;;9.80;99.90;;;;;;4913002;28;20062;-78
2023/11/17 12:15:41;;;;;;;3.08;1.92;;;10.00;99.90;;;;;;4921588;28;20057;-76
2023/11/17 12:18:18;;;;;;;2.08;0.88;;;9.90;99.90;;;;;;4912583;28;20055;-76
2023/11/17 12:20:49;;;;;;;1.73;0.88;;;9.80;99.90;;;;;;4913822;28;20055;-78
2023/11/17 12:23:17;;;;;;;1.55;0.88;;;9.70;99.90;;;;;;4921104;29;20215;-77
2023/11/17 12:25:46;;;;;;;2.25;0.90;;;9.60;99.90;;;;;;4907683;28;20055;-78
2023/11/17 12:28:16;;;;;;;2.22;1.20;;;9.60;99.90;;;;;;4908960;29;20098;-78
2023/11/17 12:30:46;;;;;;;1.20;0.60;;;9.60;99.90;;;;;;4922479;28;20059;-79
2023/11/17 12:33:17;;;;;;;2.78;1.92;;;9.50;99.90;;;;;;4935854;28;20054;-78
2023/11/17 12:35:47;;;;;;;9.93;4.82;;;9.50;99.90;;;;;;4939280;28;20085;-79
2023/11/17 12:38:17;;;;;;;3.72;1.63;;;9.50;99.90;;;;;;4926933;28;20059;-79
2023/11/17 12:41:00;;;;;;;8.23;4.40;;;9.40;99.90;;;;;;4907794;28;20051;-79
2023/11/17 12:43:31;;;;;;;2.83;1.52;;;9.40;99.90;;;;;;4906577;28;20491;-78
2023/11/17 12:46:00;;;;;;;4.82;1.85;;;9.30;99.90;;;;;;4905976;29;20119;-78
2023/11/17 12:48:29;;;;;;;3.33;1.40;;;9.30;99.90;;;;;;4891500;29;20055;-77
2023/11/17 12:51:01;;;;;;;4.13;1.48;;;9.20;99.90;;;;;;4909025;29;20063;-78
2023/11/17 12:53:42;;;;;;;3.30;1.35;;;9.20;99.90;;;;;;4928171;29;20103;-77
2023/11/17 12:56:19;;;;;;;2.00;0.93;;;9.20;99.90;;;;;;4905957;29;20079;-77
2023/11/17 12:58:48;;;;;;;2.88;0.82;;;9.20;99.90;;;;;;4867257;29;20171;-78
2023/11/17 13:01:18;;;;;;;2.33;0.95;;;9.10;99.90;;;;;;4862434;29;20066;-78
2023/11/17 13:03:48;;;;;;;2.53;1.60;;;9.10;99.90;;;;;;4868465;29;20144;-77
2023/11/17 13:06:18;;;;;;;4.22;1.65;;;9.60;99.90;;;;;;4881982;29;20657;-78
2023/11/17 13:08:48;;;;;;;3.65;2.08;;;9.10;99.90;;;;;;4853982;29;20064;-77
2023/11/17 13:11:24;;;;;;;7.53;4.05;;;7.90;99.90;;;;;;4850494;29;20061;-75
2023/11/17 13:13:56;;;;;;;9.25;5.93;;;10.00;99.90;;;;;;4877055;29;20084;-77
2023/11/17 13:16:28;;;;;;;9.10;7.00;;;8.80;99.90;;;;;;4849972;29;20069;-78
2023/11/17 13:18:58;;;;;;;;;;;8.90;99.90;;;;;;4850683;29;20453;-76